sensor_id;sensor_type;location;lat;lon;timestamp;temperature;humidity
27781;DHT22;15167;1.318;103.762;2023-08-24T00:01:14;27.80;99.90
27781;DHT22;15167;1.318;103.762;2023-08-24T00:03:44;27.90;99.90
27781;DHT22;15167;1.318;103.762;2023-08-24T00:06:13;27.90;99.90
27781;DHT22;15167;1.318;103.762;2023-08-24T00:08:40;27.90;99.90
27781;DHT22;15167;1.318;103.762;2023-08-24T00:11:07;27.90;99.90
27781;DHT22;15167;1.318;103.762;2023-08-24T00:13:34;28.00;99.90
27781;DHT22;15167;1.318;103.762;2023-08-24T00:16:00;28.00;99.90
27781;DHT22;15167;1.318;103.762;2023-08-24T00:18:27;28.00;99.90
27781;DHT22;15167;1.318;103.762;2023-08-24T00:20:54;28.00;99.90
27781;DHT22;15167;1.318;103.762;2023-08-24T00:23:20;28.00;99.90
27781;DHT22;15167;1.318;103.762;2023-08-24T00:25:47;28.10;99.90
27781;DHT22;15167;1.318;103.762;2023-08-24T00:28:13;28.10;99.90
27781;DHT22;15167;1.318;103.762;2023-08-24T00:30:40;28.20;99.90
27781;DHT22;15167;1.318;103.762;2023-08-24T00:33:06;28.20;99.90
27781;DHT22;15167;1.318;103.762;2023-08-24T00:35:33;28.30;99.90
27781;DHT22;15167;1.318;103.762;2023-08-24T00:37:59;28.30;99.90
27781;DHT22;15167;1.318;103.762;2023-08-24T00:40:26;28.40;99.90
27781;DHT22;15167;1.318;103.762;2023-08-24T00:42:52;28.40;99.90
27781;DHT22;15167;1.318;103.762;2023-08-24T00:45:19;28.50;99.90
27781;DHT22;15167;1.318;103.762;2023-08-24T00:47:47;28.50;99.90
27781;DHT22;15167;1.318;103.762;2023-08-24T00:50:15;28.50;67.20
27781;DHT22;15167;1.318;103.762;2023-08-24T00:52:44;28.50;51.00
27781;DHT22;15167;1.318;103.762;2023-08-24T00:55:11;28.60;39.80
27781;DHT22;15167;1.318;103.762;2023-08-24T00:57:40;28.70;11.30
27781;DHT22;15167;1.318;103.762;2023-08-24T01:00:10;28.70;1.00
27781;DHT22;15167;1.318;103.762;2023-08-24T01:02:38;28.70;1.00
27781;DHT22;15167;1.318;103.762;2023-08-24T01:05:05;28.70;1.00
27781;DHT22;15167;1.318;103.762;2023-08-24T01:07:37;28.80;1.00
27781;DHT22;15167;1.318;103.762;2023-08-24T01:10:05;28.80;1.00
27781;DHT22;15167;1.318;103.762;2023-08-24T01:15:37;29.10;99.90
27781;DHT22;15167;1.318;103.762;2023-08-24T01:18:08;29.10;99.90
27781;DHT22;15167;1.318;103.762;2023-08-24T01:20:38;29.10;99.90
27781;DHT22;15167;1.318;103.762;2023-08-24T01:23:26;29.10;99.90
27781;DHT22;15167;1.318;103.762;2023-08-24T01:26:14;29.10;89.30
27781;DHT22;15167;1.318;103.762;2023-08-24T01:28:46;29.30;27.30
27781;DHT22;15167;1.318;103.762;2023-08-24T01:31:16;29.30;1.00
27781;DHT22;15167;1.318;103.762;2023-08-24T01:33:46;29.30;99.90
27781;DHT22;15167;1.318;103.762;2023-08-24T01:36:15;29.30;99.90
27781;DHT22;15167;1.318;103.762;2023-08-24T01:38:52;29.30;99.90
27781;DHT22;15167;1.318;103.762;2023-08-24T01:41:31;29.40;99.90
27781;DHT22;15167;1.318;103.762;2023-08-24T01:44:03;29.50;99.90
27781;DHT22;15167;1.318;103.762;2023-08-24T01:46:31;29.60;99.90
27781;DHT22;15167;1.318;103.762;2023-08-24T01:48:59;29.60;99.90
27781;DHT22;15167;1.318;103.762;2023-08-24T01:51:27;29.70;99.90
27781;DHT22;15167;1.318;103.762;2023-08-24T01:53:54;29.80;77.20
27781;DHT22;15167;1.318;103.762;2023-08-24T01:56:20;29.90;1.00
27781;DHT22;15167;1.318;103.762;2023-08-24T01:58:47;29.90;99.90
27781;DHT22;15167;1.318;103.762;2023-08-24T02:01:14;29.80;99.90
27781;DHT22;15167;1.318;103.762;2023-08-24T02:03:42;29.70;99.90
27781;DHT22;15167;1.318;103.762;2023-08-24T02:06:08;29.70;99.90
27781;DHT22;15167;1.318;103.762;2023-08-24T02:08:36;29.70;99.90
27781;DHT22;15167;1.318;103.762;2023-08-24T02:11:02;29.80;99.90
27781;DHT22;15167;1.318;103.762;2023-08-24T02:13:29;29.80;99.90
27781;DHT22;15167;1.318;103.762;2023-08-24T02:16:08;29.80;99.90
27781;DHT22;15167;1.318;103.762;2023-08-24T02:18:35;30.00;99.90
27781;DHT22;15167;1.318;103.762;2023-08-24T02:21:07;30.00;97.00
27781;DHT22;15167;1.318;103.762;2023-08-24T02:23:34;30.00;1.00
27781;DHT22;15167;1.318;103.762;2023-08-24T02:26:01;30.00;1.00
27781;DHT22;15167;1.318;103.762;2023-08-24T02:28:28;30.10;99.90
27781;DHT22;15167;1.318;103.762;2023-08-24T02:30:59;30.10;1.00
27781;DHT22;15167;1.318;103.762;2023-08-24T02:33:26;30.10;1.00
27781;DHT22;15167;1.318;103.762;2023-08-24T02:35:52;30.20;99.90
27781;DHT22;15167;1.318;103.762;2023-08-24T02:38:19;30.30;99.90
27781;DHT22;15167;1.318;103.762;2023-08-24T02:40:49;30.30;99.90
27781;DHT22;15167;1.318;103.762;2023-08-24T02:43:15;30.40;99.90
27781;DHT22;15167;1.318;103.762;2023-08-24T02:45:42;30.40;99.90
27781;DHT22;15167;1.318;103.762;2023-08-24T02:48:08;30.40;99.90
27781;DHT22;15167;1.318;103.762;2023-08-24T02:50:35;30.40;99.90
27781;DHT22;15167;1.318;103.762;2023-08-24T02:53:02;30.50;99.90
27781;DHT22;15167;1.318;103.762;2023-08-24T02:55:31;30.60;99.90
27781;DHT22;15167;1.318;103.762;2023-08-24T02:57:57;30.80;53.40
27781;DHT22;15167;1.318;103.762;2023-08-24T03:00:24;30.80;1.00
27781;DHT22;15167;1.318;103.762;2023-08-24T03:02:50;30.90;1.00
27781;DHT22;15167;1.318;103.762;2023-08-24T03:05:17;31.10;99.90
27781;DHT22;15167;1.318;103.762;2023-08-24T03:07:43;31.10;99.90
27781;DHT22;15167;1.318;103.762;2023-08-24T03:10:10;31.20;30.50
27781;DHT22;15167;1.318;103.762;2023-08-24T03:12:37;31.20;1.00
27781;DHT22;15167;1.318;103.762;2023-08-24T03:15:04;31.30;1.00
27781;DHT22;15167;1.318;103.762;2023-08-24T03:17:31;31.40;99.90
27781;DHT22;15167;1.318;103.762;2023-08-24T03:19:58;31.40;99.90
27781;DHT22;15167;1.318;103.762;2023-08-24T03:22:25;31.40;99.90
27781;DHT22;15167;1.318;103.762;2023-08-24T03:24:51;31.60;48.00
27781;DHT22;15167;1.318;103.762;2023-08-24T03:27:18;31.60;1.00
27781;DHT22;15167;1.318;103.762;2023-08-24T03:29:44;31.50;1.00
27781;DHT22;15167;1.318;103.762;2023-08-24T03:32:12;31.60;27.20
27781;DHT22;15167;1.318;103.762;2023-08-24T03:34:39;31.70;1.20
27781;DHT22;15167;1.318;103.762;2023-08-24T03:37:06;31.70;1.00
27781;DHT22;15167;1.318;103.762;2023-08-24T03:39:32;31.60;1.00
27781;DHT22;15167;1.318;103.762;2023-08-24T03:41:59;31.60;99.90
27781;DHT22;15167;1.318;103.762;2023-08-24T03:44:25;31.60;99.90
27781;DHT22;15167;1.318;103.762;2023-08-24T03:46:52;31.60;99.90
27781;DHT22;15167;1.318;103.762;2023-08-24T03:49:18;31.70;99.90
27781;DHT22;15167;1.318;103.762;2023-08-24T03:51:45;31.80;99.90
27781;DHT22;15167;1.318;103.762;2023-08-24T03:54:11;31.80;99.90
27781;DHT22;15167;1.318;103.762;2023-08-24T03:56:38;31.90;75.90
27781;DHT22;15167;1.318;103.762;2023-08-24T03:59:05;32.00;99.90
27781;DHT22;15167;1.318;103.762;2023-08-24T04:01:31;32.10;99.90
27781;DHT22;15167;1.318;103.762;2023-08-24T04:04:00;32.00;99.90
27781;DHT22;15167;1.318;103.762;2023-08-24T04:06:26;32.00;99.90
27781;DHT22;15167;1.318;103.762;2023-08-24T04:08:53;32.10;99.90
27781;DHT22;15167;1.318;103.762;2023-08-24T04:11:19;32.10;99.90
27781;DHT22;15167;1.318;103.762;2023-08-24T04:13:46;32.20;99.90
27781;DHT22;15167;1.318;103.762;2023-08-24T04:16:12;32.30;99.90
27781;DHT22;15167;1.318;103.762;2023-08-24T04:18:39;32.30;99.90
27781;DHT22;15167;1.318;103.762;2023-08-24T04:21:06;32.20;99.90
27781;DHT22;15167;1.318;103.762;2023-08-24T04:23:33;32.20;99.90
27781;DHT22;15167;1.318;103.762;2023-08-24T04:26:00;32.20;99.90
27781;DHT22;15167;1.318;103.762;2023-08-24T04:28:26;32.30;99.90
27781;DHT22;15167;1.318;103.762;2023-08-24T04:30:54;32.40;99.90
27781;DHT22;15167;1.318;103.762;2023-08-24T04:33:22;32.70;57.60
27781;DHT22;15167;1.318;103.762;2023-08-24T04:35:49;32.60;91.40
27781;DHT22;15167;1.318;103.762;2023-08-24T04:38:17;32.70;99.90
27781;DHT22;15167;1.318;103.762;2023-08-24T04:40:51;32.60;99.90
27781;DHT22;15167;1.318;103.762;2023-08-24T04:43:18;32.60;99.90
27781;DHT22;15167;1.318;103.762;2023-08-24T04:45:48;32.50;99.90
27781;DHT22;15167;1.318;103.762;2023-08-24T04:48:15;32.50;99.90
27781;DHT22;15167;1.318;103.762;2023-08-24T04:50:45;32.60;87.00
27781;DHT22;15167;1.318;103.762;2023-08-24T04:53:17;32.70;1.00
27781;DHT22;15167;1.318;103.762;2023-08-24T04:55:44;32.80;99.90
27781;DHT22;15167;1.318;103.762;2023-08-24T04:58:12;32.90;1.00
27781;DHT22;15167;1.318;103.762;2023-08-24T05:00:39;32.80;10.00
27781;DHT22;15167;1.318;103.762;2023-08-24T05:03:06;32.70;1.00
27781;DHT22;15167;1.318;103.762;2023-08-24T05:05:34;32.50;97.60
27781;DHT22;15167;1.318;103.762;2023-08-24T05:08:02;32.70;99.90
27781;DHT22;15167;1.318;103.762;2023-08-24T05:10:33;32.80;99.90
27781;DHT22;15167;1.318;103.762;2023-08-24T05:13:00;32.90;99.90
27781;DHT22;15167;1.318;103.762;2023-08-24T05:15:27;33.00;99.90
27781;DHT22;15167;1.318;103.762;2023-08-24T05:17:53;33.00;99.90
27781;DHT22;15167;1.318;103.762;2023-08-24T05:20:27;33.00;99.90
27781;DHT22;15167;1.318;103.762;2023-08-24T05:22:54;33.20;99.90
27781;DHT22;15167;1.318;103.762;2023-08-24T05:25:22;33.30;99.90
27781;DHT22;15167;1.318;103.762;2023-08-24T05:27:49;33.50;37.80
27781;DHT22;15167;1.318;103.762;2023-08-24T05:30:15;33.30;30.10
27781;DHT22;15167;1.318;103.762;2023-08-24T05:32:42;33.10;1.00
27781;DHT22;15167;1.318;103.762;2023-08-24T05:35:09;32.70;57.40
27781;DHT22;15167;1.318;103.762;2023-08-24T05:37:35;32.50;99.90
27781;DHT22;15167;1.318;103.762;2023-08-24T05:40:03;32.30;99.90
27781;DHT22;15167;1.318;103.762;2023-08-24T05:42:31;32.30;76.00
27781;DHT22;15167;1.318;103.762;2023-08-24T05:44:57;32.10;75.20
27781;DHT22;15167;1.318;103.762;2023-08-24T05:47:24;32.10;51.00
27781;DHT22;15167;1.318;103.762;2023-08-24T05:49:50;32.20;12.60
27781;DHT22;15167;1.318;103.762;2023-08-24T05:52:17;32.50;1.00
27781;DHT22;15167;1.318;103.762;2023-08-24T05:54:43;32.50;99.90
27781;DHT22;15167;1.318;103.762;2023-08-24T05:57:10;32.50;99.90
27781;DHT22;15167;1.318;103.762;2023-08-24T05:59:36;32.60;99.90
27781;DHT22;15167;1.318;103.762;2023-08-24T06:02:03;32.60;99.90
27781;DHT22;15167;1.318;103.762;2023-08-24T06:04:30;32.50;98.90
27781;DHT22;15167;1.318;103.762;2023-08-24T06:06:57;32.50;99.90
27781;DHT22;15167;1.318;103.762;2023-08-24T06:09:23;32.40;99.90
27781;DHT22;15167;1.318;103.762;2023-08-24T06:11:50;32.30;99.90
27781;DHT22;15167;1.318;103.762;2023-08-24T06:14:16;32.20;99.90
27781;DHT22;15167;1.318;103.762;2023-08-24T06:16:43;32.10;99.90
27781;DHT22;15167;1.318;103.762;2023-08-24T06:19:09;32.00;99.90
27781;DHT22;15167;1.318;103.762;2023-08-24T06:21:36;32.00;99.90
27781;DHT22;15167;1.318;103.762;2023-08-24T06:24:02;32.00;99.90
27781;DHT22;15167;1.318;103.762;2023-08-24T06:26:29;32.10;99.90
27781;DHT22;15167;1.318;103.762;2023-08-24T06:28:56;32.30;99.90
27781;DHT22;15167;1.318;103.762;2023-08-24T06:31:23;32.30;99.90
27781;DHT22;15167;1.318;103.762;2023-08-24T06:33:50;32.50;99.90
27781;DHT22;15167;1.318;103.762;2023-08-24T06:36:16;32.60;99.90
27781;DHT22;15167;1.318;103.762;2023-08-24T06:38:43;32.70;99.90
27781;DHT22;15167;1.318;103.762;2023-08-24T06:41:09;32.70;99.90
27781;DHT22;15167;1.318;103.762;2023-08-24T06:43:38;32.60;99.90
27781;DHT22;15167;1.318;103.762;2023-08-24T06:46:07;32.60;99.90
27781;DHT22;15167;1.318;103.762;2023-08-24T06:48:37;32.70;99.90
27781;DHT22;15167;1.318;103.762;2023-08-24T06:51:04;32.70;99.90
27781;DHT22;15167;1.318;103.762;2023-08-24T06:53:30;32.90;99.90
27781;DHT22;15167;1.318;103.762;2023-08-24T06:55:58;32.90;30.70
27781;DHT22;15167;1.318;103.762;2023-08-24T06:58:24;33.00;79.90
27781;DHT22;15167;1.318;103.762;2023-08-24T07:00:51;32.90;99.90
27781;DHT22;15167;1.318;103.762;2023-08-24T07:03:18;32.80;99.90
27781;DHT22;15167;1.318;103.762;2023-08-24T07:05:45;32.70;78.10
27781;DHT22;15167;1.318;103.762;2023-08-24T07:08:13;32.80;38.40
27781;DHT22;15167;1.318;103.762;2023-08-24T07:10:40;32.90;1.00
27781;DHT22;15167;1.318;103.762;2023-08-24T07:13:07;32.90;99.90
27781;DHT22;15167;1.318;103.762;2023-08-24T07:15:34;33.20;99.90
27781;DHT22;15167;1.318;103.762;2023-08-24T07:18:04;33.20;99.90
27781;DHT22;15167;1.318;103.762;2023-08-24T07:20:34;32.90;99.90
27781;DHT22;15167;1.318;103.762;2023-08-24T07:23:01;32.60;99.90
27781;DHT22;15167;1.318;103.762;2023-08-24T07:25:28;32.30;99.90
27781;DHT22;15167;1.318;103.762;2023-08-24T07:27:55;32.20;99.90
27781;DHT22;15167;1.318;103.762;2023-08-24T07:30:26;32.00;1.00
27781;DHT22;15167;1.318;103.762;2023-08-24T07:32:53;31.90;97.20
27781;DHT22;15167;1.318;103.762;2023-08-24T07:35:20;31.70;99.90
27781;DHT22;15167;1.318;103.762;2023-08-24T07:37:48;31.40;99.90
27781;DHT22;15167;1.318;103.762;2023-08-24T07:40:14;31.40;99.90
27781;DHT22;15167;1.318;103.762;2023-08-24T07:42:50;31.40;99.90
27781;DHT22;15167;1.318;103.762;2023-08-24T07:45:19;31.30;99.90
27781;DHT22;15167;1.318;103.762;2023-08-24T07:47:45;31.30;99.90
27781;DHT22;15167;1.318;103.762;2023-08-24T07:50:12;31.40;99.90
27781;DHT22;15167;1.318;103.762;2023-08-24T07:52:39;31.40;99.90
27781;DHT22;15167;1.318;103.762;2023-08-24T07:55:07;31.50;99.90
27781;DHT22;15167;1.318;103.762;2023-08-24T07:57:34;31.50;99.90
27781;DHT22;15167;1.318;103.762;2023-08-24T08:00:01;31.40;99.90
27781;DHT22;15167;1.318;103.762;2023-08-24T08:02:28;31.50;99.90
27781;DHT22;15167;1.318;103.762;2023-08-24T08:04:58;31.50;99.90
27781;DHT22;15167;1.318;103.762;2023-08-24T08:07:26;31.40;1.00
27781;DHT22;15167;1.318;103.762;2023-08-24T08:09:52;31.60;99.90
27781;DHT22;15167;1.318;103.762;2023-08-24T08:12:19;31.60;99.90
27781;DHT22;15167;1.318;103.762;2023-08-24T08:14:46;31.60;1.00
27781;DHT22;15167;1.318;103.762;2023-08-24T08:17:12;31.70;17.30
27781;DHT22;15167;1.318;103.762;2023-08-24T08:19:39;31.70;99.90
27781;DHT22;15167;1.318;103.762;2023-08-24T08:22:05;31.90;99.90
27781;DHT22;15167;1.318;103.762;2023-08-24T08:24:32;32.10;99.90
27781;DHT22;15167;1.318;103.762;2023-08-24T08:26:58;32.20;2.60
27781;DHT22;15167;1.318;103.762;2023-08-24T08:29:25;32.10;1.00
27781;DHT22;15167;1.318;103.762;2023-08-24T08:31:55;32.20;99.90
27781;DHT22;15167;1.318;103.762;2023-08-24T08:34:21;32.30;99.90
27781;DHT22;15167;1.318;103.762;2023-08-24T08:36:48;32.40;90.80
27781;DHT22;15167;1.318;103.762;2023-08-24T08:39:14;32.40;1.00
27781;DHT22;15167;1.318;103.762;2023-08-24T08:41:44;32.50;1.00
27781;DHT22;15167;1.318;103.762;2023-08-24T08:44:15;32.50;18.10
27781;DHT22;15167;1.318;103.762;2023-08-24T08:46:42;32.30;1.00
27781;DHT22;15167;1.318;103.762;2023-08-24T08:49:11;32.30;24.80
27781;DHT22;15167;1.318;103.762;2023-08-24T08:51:41;32.30;1.00
27781;DHT22;15167;1.318;103.762;2023-08-24T08:54:09;32.20;29.20
27781;DHT22;15167;1.318;103.762;2023-08-24T08:56:36;32.20;99.50
27781;DHT22;15167;1.318;103.762;2023-08-24T08:59:03;32.30;27.40
27781;DHT22;15167;1.318;103.762;2023-08-24T09:01:30;32.30;1.00
27781;DHT22;15167;1.318;103.762;2023-08-24T09:03:57;32.20;99.90
27781;DHT22;15167;1.318;103.762;2023-08-24T09:06:24;32.30;93.40
27781;DHT22;15167;1.318;103.762;2023-08-24T09:08:50;32.10;1.00
27781;DHT22;15167;1.318;103.762;2023-08-24T09:11:19;32.10;1.00
27781;DHT22;15167;1.318;103.762;2023-08-24T09:13:46;32.20;1.00
27781;DHT22;15167;1.318;103.762;2023-08-24T09:16:12;32.30;1.00
27781;DHT22;15167;1.318;103.762;2023-08-24T09:18:47;32.30;1.00
27781;DHT22;15167;1.318;103.762;2023-08-24T09:21:16;32.40;1.00
27781;DHT22;15167;1.318;103.762;2023-08-24T09:23:53;32.30;1.00
27781;DHT22;15167;1.318;103.762;2023-08-24T09:26:33;32.30;1.00
27781;DHT22;15167;1.318;103.762;2023-08-24T09:29:10;32.10;1.00
27781;DHT22;15167;1.318;103.762;2023-08-24T09:31:39;32.20;99.90
27781;DHT22;15167;1.318;103.762;2023-08-24T09:34:06;32.30;99.90
27781;DHT22;15167;1.318;103.762;2023-08-24T09:36:34;32.30;1.00
27781;DHT22;15167;1.318;103.762;2023-08-24T09:39:02;32.40;1.00
27781;DHT22;15167;1.318;103.762;2023-08-24T09:41:40;32.50;1.00
27781;DHT22;15167;1.318;103.762;2023-08-24T09:44:07;32.60;1.00
27781;DHT22;15167;1.318;103.762;2023-08-24T09:46:38;32.60;1.00
27781;DHT22;15167;1.318;103.762;2023-08-24T09:49:06;32.70;1.00
27781;DHT22;15167;1.318;103.762;2023-08-24T09:51:34;32.70;1.00
27781;DHT22;15167;1.318;103.762;2023-08-24T09:54:06;32.70;1.00
27781;DHT22;15167;1.318;103.762;2023-08-24T09:56:36;32.90;1.00
27781;DHT22;15167;1.318;103.762;2023-08-24T10:01:37;33.60;99.90
27781;DHT22;15167;1.318;103.762;2023-08-24T10:04:05;33.80;99.90
27781;DHT22;15167;1.318;103.762;2023-08-24T10:06:33;34.00;99.90
27781;DHT22;15167;1.318;103.762;2023-08-24T10:09:07;34.10;99.90
27781;DHT22;15167;1.318;103.762;2023-08-24T10:11:36;34.20;99.90
27781;DHT22;15167;1.318;103.762;2023-08-24T10:16:50;33.90;99.90
27781;DHT22;15167;1.318;103.762;2023-08-24T10:19:18;33.70;99.90
27781;DHT22;15167;1.318;103.762;2023-08-24T10:21:47;33.50;99.90
27781;DHT22;15167;1.318;103.762;2023-08-24T10:24:15;33.20;1.00
27781;DHT22;15167;1.318;103.762;2023-08-24T10:26:42;32.70;1.00
27781;DHT22;15167;1.318;103.762;2023-08-24T10:29:10;32.40;40.20
27781;DHT22;15167;1.318;103.762;2023-08-24T10:31:37;32.20;99.90
27781;DHT22;15167;1.318;103.762;2023-08-24T10:34:05;32.10;99.90
27781;DHT22;15167;1.318;103.762;2023-08-24T10:36:33;32.10;99.90
27781;DHT22;15167;1.318;103.762;2023-08-24T10:39:03;32.00;99.90
27781;DHT22;15167;1.318;103.762;2023-08-24T10:41:50;32.00;99.90
27781;DHT22;15167;1.318;103.762;2023-08-24T10:44:21;31.80;99.90
27781;DHT22;15167;1.318;103.762;2023-08-24T10:52:32;31.00;99.90
27781;DHT22;15167;1.318;103.762;2023-08-24T10:55:03;30.90;99.90
27781;DHT22;15167;1.318;103.762;2023-08-24T10:57:38;30.70;99.90
27781;DHT22;15167;1.318;103.762;2023-08-24T11:00:09;30.50;99.90
27781;DHT22;15167;1.318;103.762;2023-08-24T11:02:50;30.50;99.90
27781;DHT22;15167;1.318;103.762;2023-08-24T11:05:31;30.30;99.90
27781;DHT22;15167;1.318;103.762;2023-08-24T11:08:03;30.30;1.00
27781;DHT22;15167;1.318;103.762;2023-08-24T11:13:16;30.30;5.50
27781;DHT22;15167;1.318;103.762;2023-08-24T11:15:50;30.20;15.80
27781;DHT22;15167;1.318;103.762;2023-08-24T11:18:30;30.10;1.00
27781;DHT22;15167;1.318;103.762;2023-08-24T11:21:01;30.10;2.50
27781;DHT22;15167;1.318;103.762;2023-08-24T11:23:28;30.00;33.30
27781;DHT22;15167;1.318;103.762;2023-08-24T11:25:57;30.00;1.00
27781;DHT22;15167;1.318;103.762;2023-08-24T11:28:29;29.90;1.00
27781;DHT22;15167;1.318;103.762;2023-08-24T11:30:57;29.90;1.00
27781;DHT22;15167;1.318;103.762;2023-08-24T11:33:32;29.90;1.00
27781;DHT22;15167;1.318;103.762;2023-08-24T11:36:00;29.90;20.00
27781;DHT22;15167;1.318;103.762;2023-08-24T11:38:40;29.90;74.70
27781;DHT22;15167;1.318;103.762;2023-08-24T11:41:17;29.90;99.90
27781;DHT22;15167;1.318;103.762;2023-08-24T11:43:45;29.80;99.90
27781;DHT22;15167;1.318;103.762;2023-08-24T11:46:16;29.80;1.00
27781;DHT22;15167;1.318;103.762;2023-08-24T11:48:43;29.80;34.70
27781;DHT22;15167;1.318;103.762;2023-08-24T11:51:12;29.70;99.90
27781;DHT22;15167;1.318;103.762;2023-08-24T11:53:43;29.70;99.90
27781;DHT22;15167;1.318;103.762;2023-08-24T11:56:14;29.70;99.90
27781;DHT22;15167;1.318;103.762;2023-08-24T11:58:45;29.70;99.90
27781;DHT22;15167;1.318;103.762;2023-08-24T12:01:13;29.70;99.90
27781;DHT22;15167;1.318;103.762;2023-08-24T12:03:41;29.60;1.00
27781;DHT22;15167;1.318;103.762;2023-08-24T12:06:17;29.70;1.00
27781;DHT22;15167;1.318;103.762;2023-08-24T12:08:46;29.70;1.00
27781;DHT22;15167;1.318;103.762;2023-08-24T12:11:20;29.60;1.00
27781;DHT22;15167;1.318;103.762;2023-08-24T12:13:52;29.60;1.00
27781;DHT22;15167;1.318;103.762;2023-08-24T12:16:20;29.60;1.00
27781;DHT22;15167;1.318;103.762;2023-08-24T12:18:55;29.50;35.30
27781;DHT22;15167;1.318;103.762;2023-08-24T12:21:23;29.60;64.30
27781;DHT22;15167;1.318;103.762;2023-08-24T12:23:57;29.60;53.80
27781;DHT22;15167;1.318;103.762;2023-08-24T12:26:23;29.60;76.50
27781;DHT22;15167;1.318;103.762;2023-08-24T12:28:51;29.60;57.00
27781;DHT22;15167;1.318;103.762;2023-08-24T12:31:18;29.60;99.90
27781;DHT22;15167;1.318;103.762;2023-08-24T12:33:49;29.50;99.90
27781;DHT22;15167;1.318;103.762;2023-08-24T12:36:24;29.50;99.90
27781;DHT22;15167;1.318;103.762;2023-08-24T12:38:50;29.50;99.90
27781;DHT22;15167;1.318;103.762;2023-08-24T12:41:17;29.40;99.90
27781;DHT22;15167;1.318;103.762;2023-08-24T12:43:45;29.40;99.90
27781;DHT22;15167;1.318;103.762;2023-08-24T12:46:12;29.40;99.90
27781;DHT22;15167;1.318;103.762;2023-08-24T12:48:38;29.40;99.90
27781;DHT22;15167;1.318;103.762;2023-08-24T12:51:05;29.40;99.90
27781;DHT22;15167;1.318;103.762;2023-08-24T12:53:32;29.40;99.90
27781;DHT22;15167;1.318;103.762;2023-08-24T12:55:58;29.40;99.90
27781;DHT22;15167;1.318;103.762;2023-08-24T12:58:25;29.40;99.90
27781;DHT22;15167;1.318;103.762;2023-08-24T13:00:51;29.40;99.90
27781;DHT22;15167;1.318;103.762;2023-08-24T13:03:18;29.40;99.90
27781;DHT22;15167;1.318;103.762;2023-08-24T13:05:44;30.60;99.90
27781;DHT22;15167;1.318;103.762;2023-08-24T13:08:11;29.30;99.90
27781;DHT22;15167;1.318;103.762;2023-08-24T13:10:37;29.20;1.00
27781;DHT22;15167;1.318;103.762;2023-08-24T13:13:04;29.20;1.00
27781;DHT22;15167;1.318;103.762;2023-08-24T13:15:30;29.20;1.00
27781;DHT22;15167;1.318;103.762;2023-08-24T13:17:57;29.10;1.00
27781;DHT22;15167;1.318;103.762;2023-08-24T13:20:24;29.10;25.20
27781;DHT22;15167;1.318;103.762;2023-08-24T13:22:54;29.10;82.10
27781;DHT22;15167;1.318;103.762;2023-08-24T13:25:20;29.00;99.90
27781;DHT22;15167;1.318;103.762;2023-08-24T13:27:47;29.00;99.90
27781;DHT22;15167;1.318;103.762;2023-08-24T13:30:13;29.00;99.90
27781;DHT22;15167;1.318;103.762;2023-08-24T13:32:40;29.10;99.90
27781;DHT22;15167;1.318;103.762;2023-08-24T13:35:07;29.10;99.90
27781;DHT22;15167;1.318;103.762;2023-08-24T13:37:34;29.00;99.90
27781;DHT22;15167;1.318;103.762;2023-08-24T13:40:01;29.00;99.90
27781;DHT22;15167;1.318;103.762;2023-08-24T13:42:28;29.00;99.90
27781;DHT22;15167;1.318;103.762;2023-08-24T13:44:55;29.00;99.90
27781;DHT22;15167;1.318;103.762;2023-08-24T13:47:21;29.00;99.90
27781;DHT22;15167;1.318;103.762;2023-08-24T13:49:48;29.00;99.90
27781;DHT22;15167;1.318;103.762;2023-08-24T13:52:15;29.00;99.90
27781;DHT22;15167;1.318;103.762;2023-08-24T13:54:42;29.00;99.90
27781;DHT22;15167;1.318;103.762;2023-08-24T13:57:09;29.00;99.90
27781;DHT22;15167;1.318;103.762;2023-08-24T13:59:36;29.00;99.90
27781;DHT22;15167;1.318;103.762;2023-08-24T14:02:04;29.00;99.90
27781;DHT22;15167;1.318;103.762;2023-08-24T14:04:31;28.90;99.90
27781;DHT22;15167;1.318;103.762;2023-08-24T14:06:57;29.00;99.90
27781;DHT22;15167;1.318;103.762;2023-08-24T14:09:24;28.90;99.90
27781;DHT22;15167;1.318;103.762;2023-08-24T14:11:50;28.90;99.90
27781;DHT22;15167;1.318;103.762;2023-08-24T14:14:17;28.80;99.90
27781;DHT22;15167;1.318;103.762;2023-08-24T14:16:43;28.80;99.90
27781;DHT22;15167;1.318;103.762;2023-08-24T14:19:10;28.70;99.90
27781;DHT22;15167;1.318;103.762;2023-08-24T14:21:37;28.70;99.90
27781;DHT22;15167;1.318;103.762;2023-08-24T14:24:04;28.70;99.90
27781;DHT22;15167;1.318;103.762;2023-08-24T14:26:30;28.70;99.90
27781;DHT22;15167;1.318;103.762;2023-08-24T14:28:58;28.70;99.90
27781;DHT22;15167;1.318;103.762;2023-08-24T14:31:27;28.70;1.00
27781;DHT22;15167;1.318;103.762;2023-08-24T14:33:54;28.70;1.00
27781;DHT22;15167;1.318;103.762;2023-08-24T14:36:22;28.70;99.90
27781;DHT22;15167;1.318;103.762;2023-08-24T14:38:49;28.70;99.90
27781;DHT22;15167;1.318;103.762;2023-08-24T14:41:18;28.70;99.90
27781;DHT22;15167;1.318;103.762;2023-08-24T14:43:44;28.70;99.90
27781;DHT22;15167;1.318;103.762;2023-08-24T14:46:12;28.70;1.00
27781;DHT22;15167;1.318;103.762;2023-08-24T14:48:39;28.70;1.00
27781;DHT22;15167;1.318;103.762;2023-08-24T14:51:06;28.60;1.00
27781;DHT22;15167;1.318;103.762;2023-08-24T14:53:32;28.60;1.00
27781;DHT22;15167;1.318;103.762;2023-08-24T14:55:59;28.60;1.00
27781;DHT22;15167;1.318;103.762;2023-08-24T14:58:26;28.60;1.00
27781;DHT22;15167;1.318;103.762;2023-08-24T15:00:54;28.60;1.00
27781;DHT22;15167;1.318;103.762;2023-08-24T15:03:23;28.60;1.00
27781;DHT22;15167;1.318;103.762;2023-08-24T15:06:03;28.60;1.00
27781;DHT22;15167;1.318;103.762;2023-08-24T15:08:31;28.60;1.00
27781;DHT22;15167;1.318;103.762;2023-08-24T15:11:00;28.60;1.00
27781;DHT22;15167;1.318;103.762;2023-08-24T15:13:28;28.60;1.00
27781;DHT22;15167;1.318;103.762;2023-08-24T15:15:57;28.60;1.00
27781;DHT22;15167;1.318;103.762;2023-08-24T15:18:24;28.60;1.00
27781;DHT22;15167;1.318;103.762;2023-08-24T15:20:50;28.60;1.00
27781;DHT22;15167;1.318;103.762;2023-08-24T15:23:28;28.60;1.00
27781;DHT22;15167;1.318;103.762;2023-08-24T15:25:56;28.60;1.00
27781;DHT22;15167;1.318;103.762;2023-08-24T15:28:23;28.50;10.30
27781;DHT22;15167;1.318;103.762;2023-08-24T15:30:50;28.60;30.00
27781;DHT22;15167;1.318;103.762;2023-08-24T15:33:18;28.60;48.40
27781;DHT22;15167;1.318;103.762;2023-08-24T15:35:45;28.60;77.80
27781;DHT22;15167;1.318;103.762;2023-08-24T15:38:12;28.50;99.90
27781;DHT22;15167;1.318;103.762;2023-08-24T15:40:39;28.50;99.90
27781;DHT22;15167;1.318;103.762;2023-08-24T15:43:06;28.50;99.90